sensor_id;sensor_type;location;lat;lon;timestamp;temperature;humidity
16200;DHT22;8207;52.494;4.654;2023-02-20T00:02:09;8.30;99.90
16200;DHT22;8207;52.494;4.654;2023-02-20T00:04:36;8.30;99.90
16200;DHT22;8207;52.494;4.654;2023-02-20T00:07:03;8.30;99.90
16200;DHT22;8207;52.494;4.654;2023-02-20T00:09:31;8.30;99.90
16200;DHT22;8207;52.494;4.654;2023-02-20T00:11:58;8.30;99.90
16200;DHT22;8207;52.494;4.654;2023-02-20T00:14:24;8.30;99.90
16200;DHT22;8207;52.494;4.654;2023-02-20T00:16:51;8.40;99.90
16200;DHT22;8207;52.494;4.654;2023-02-20T00:19:18;8.40;99.90
16200;DHT22;8207;52.494;4.654;2023-02-20T00:21:45;8.30;99.90
16200;DHT22;8207;52.494;4.654;2023-02-20T00:24:13;8.30;99.90
16200;DHT22;8207;52.494;4.654;2023-02-20T00:26:46;8.30;99.90
16200;DHT22;8207;52.494;4.654;2023-02-20T00:29:14;8.30;99.90
16200;DHT22;8207;52.494;4.654;2023-02-20T00:31:41;8.30;99.90
16200;DHT22;8207;52.494;4.654;2023-02-20T00:34:08;8.30;99.90
16200;DHT22;8207;52.494;4.654;2023-02-20T00:36:35;8.30;99.90
16200;DHT22;8207;52.494;4.654;2023-02-20T00:39:02;8.30;99.90
16200;DHT22;8207;52.494;4.654;2023-02-20T00:41:29;8.30;99.90
16200;DHT22;8207;52.494;4.654;2023-02-20T00:43:58;8.30;99.90
16200;DHT22;8207;52.494;4.654;2023-02-20T00:46:24;8.30;99.90
16200;DHT22;8207;52.494;4.654;2023-02-20T00:48:51;8.30;99.90
16200;DHT22;8207;52.494;4.654;2023-02-20T00:51:19;8.20;99.90
16200;DHT22;8207;52.494;4.654;2023-02-20T00:53:45;8.30;99.90
16200;DHT22;8207;52.494;4.654;2023-02-20T00:56:13;8.30;99.90
16200;DHT22;8207;52.494;4.654;2023-02-20T00:58:40;8.20;99.90
16200;DHT22;8207;52.494;4.654;2023-02-20T01:01:08;8.20;99.90
16200;DHT22;8207;52.494;4.654;2023-02-20T01:03:35;8.20;99.90
16200;DHT22;8207;52.494;4.654;2023-02-20T01:06:02;8.10;99.90
16200;DHT22;8207;52.494;4.654;2023-02-20T01:08:29;8.10;99.90
16200;DHT22;8207;52.494;4.654;2023-02-20T01:10:56;8.10;99.90
16200;DHT22;8207;52.494;4.654;2023-02-20T01:13:24;8.10;99.90
16200;DHT22;8207;52.494;4.654;2023-02-20T01:15:51;8.10;99.90
16200;DHT22;8207;52.494;4.654;2023-02-20T01:18:20;8.10;99.90
16200;DHT22;8207;52.494;4.654;2023-02-20T01:20:47;8.10;99.90
16200;DHT22;8207;52.494;4.654;2023-02-20T01:23:14;8.10;99.90
16200;DHT22;8207;52.494;4.654;2023-02-20T01:25:41;8.10;99.90
16200;DHT22;8207;52.494;4.654;2023-02-20T01:28:08;8.10;99.90
16200;DHT22;8207;52.494;4.654;2023-02-20T01:30:35;8.10;99.90
16200;DHT22;8207;52.494;4.654;2023-02-20T01:33:02;8.10;99.90
16200;DHT22;8207;52.494;4.654;2023-02-20T01:35:30;8.10;99.90
16200;DHT22;8207;52.494;4.654;2023-02-20T01:37:58;8.10;99.90
16200;DHT22;8207;52.494;4.654;2023-02-20T01:40:26;8.10;99.90
16200;DHT22;8207;52.494;4.654;2023-02-20T01:42:53;8.10;99.90
16200;DHT22;8207;52.494;4.654;2023-02-20T01:45:31;8.10;99.90
16200;DHT22;8207;52.494;4.654;2023-02-20T01:47:59;8.10;99.90
16200;DHT22;8207;52.494;4.654;2023-02-20T01:50:31;8.20;99.90
16200;DHT22;8207;52.494;4.654;2023-02-20T01:53:03;8.10;99.90
16200;DHT22;8207;52.494;4.654;2023-02-20T01:55:36;8.00;99.90
16200;DHT22;8207;52.494;4.654;2023-02-20T01:58:08;8.00;99.90
16200;DHT22;8207;52.494;4.654;2023-02-20T02:00:36;8.00;99.90
16200;DHT22;8207;52.494;4.654;2023-02-20T02:03:06;8.00;99.90
16200;DHT22;8207;52.494;4.654;2023-02-20T02:05:37;8.00;99.90
16200;DHT22;8207;52.494;4.654;2023-02-20T02:08:06;8.00;99.90
16200;DHT22;8207;52.494;4.654;2023-02-20T02:10:37;8.00;99.90
16200;DHT22;8207;52.494;4.654;2023-02-20T02:13:05;8.00;99.90
16200;DHT22;8207;52.494;4.654;2023-02-20T02:15:32;8.00;99.90
16200;DHT22;8207;52.494;4.654;2023-02-20T02:18:17;8.10;99.90
16200;DHT22;8207;52.494;4.654;2023-02-20T02:33:11;8.20;99.90
16200;DHT22;8207;52.494;4.654;2023-02-20T02:36:14;8.10;99.90
16200;DHT22;8207;52.494;4.654;2023-02-20T02:38:49;8.10;99.90
16200;DHT22;8207;52.494;4.654;2023-02-20T02:41:23;8.10;99.90
16200;DHT22;8207;52.494;4.654;2023-02-20T02:43:59;8.10;99.90
16200;DHT22;8207;52.494;4.654;2023-02-20T02:46:31;8.10;99.90
16200;DHT22;8207;52.494;4.654;2023-02-20T02:49:04;8.10;99.90
16200;DHT22;8207;52.494;4.654;2023-02-20T02:51:36;8.10;99.90
16200;DHT22;8207;52.494;4.654;2023-02-20T02:54:09;8.10;99.90
16200;DHT22;8207;52.494;4.654;2023-02-20T02:56:39;8.10;99.90
16200;DHT22;8207;52.494;4.654;2023-02-20T02:59:08;8.10;99.90
16200;DHT22;8207;52.494;4.654;2023-02-20T03:01:39;8.10;99.90
16200;DHT22;8207;52.494;4.654;2023-02-20T03:04:11;8.10;99.90
16200;DHT22;8207;52.494;4.654;2023-02-20T03:06:42;8.10;99.90
16200;DHT22;8207;52.494;4.654;2023-02-20T03:09:13;8.10;99.90
16200;DHT22;8207;52.494;4.654;2023-02-20T03:11:41;8.10;99.90
16200;DHT22;8207;52.494;4.654;2023-02-20T03:14:11;8.20;99.90
16200;DHT22;8207;52.494;4.654;2023-02-20T03:16:58;8.20;99.90
16200;DHT22;8207;52.494;4.654;2023-02-20T03:19:31;8.30;99.90
16200;DHT22;8207;52.494;4.654;2023-02-20T03:22:01;8.30;99.90
16200;DHT22;8207;52.494;4.654;2023-02-20T03:24:32;8.20;99.90
16200;DHT22;8207;52.494;4.654;2023-02-20T03:27:21;8.30;99.90
16200;DHT22;8207;52.494;4.654;2023-02-20T03:29:51;8.30;99.90
16200;DHT22;8207;52.494;4.654;2023-02-20T03:32:22;8.30;99.90
16200;DHT22;8207;52.494;4.654;2023-02-20T03:35:08;8.30;99.90
16200;DHT22;8207;52.494;4.654;2023-02-20T03:37:54;8.30;99.90
16200;DHT22;8207;52.494;4.654;2023-02-20T03:40:40;8.30;99.90
16200;DHT22;8207;52.494;4.654;2023-02-20T03:43:26;8.30;99.90
16200;DHT22;8207;52.494;4.654;2023-02-20T03:45:58;8.20;99.90
16200;DHT22;8207;52.494;4.654;2023-02-20T03:48:31;8.20;99.90
16200;DHT22;8207;52.494;4.654;2023-02-20T03:51:00;8.30;99.90
16200;DHT22;8207;52.494;4.654;2023-02-20T03:53:29;8.30;99.90
16200;DHT22;8207;52.494;4.654;2023-02-20T03:55:58;8.30;99.90
16200;DHT22;8207;52.494;4.654;2023-02-20T03:58:28;8.30;99.90
16200;DHT22;8207;52.494;4.654;2023-02-20T04:00:59;8.30;99.90
16200;DHT22;8207;52.494;4.654;2023-02-20T04:03:31;8.30;99.90
16200;DHT22;8207;52.494;4.654;2023-02-20T04:05:59;8.30;99.90
16200;DHT22;8207;52.494;4.654;2023-02-20T04:08:31;8.30;99.90
16200;DHT22;8207;52.494;4.654;2023-02-20T04:11:02;8.30;99.90
16200;DHT22;8207;52.494;4.654;2023-02-20T04:13:32;8.30;99.90
16200;DHT22;8207;52.494;4.654;2023-02-20T04:16:00;8.30;99.90
16200;DHT22;8207;52.494;4.654;2023-02-20T04:18:28;8.30;99.90
16200;DHT22;8207;52.494;4.654;2023-02-20T04:20:58;8.30;99.90
16200;DHT22;8207;52.494;4.654;2023-02-20T04:23:27;8.30;99.90
16200;DHT22;8207;52.494;4.654;2023-02-20T04:25:58;8.30;99.90
16200;DHT22;8207;52.494;4.654;2023-02-20T04:28:27;8.30;99.90
16200;DHT22;8207;52.494;4.654;2023-02-20T04:30:54;8.30;99.90
16200;DHT22;8207;52.494;4.654;2023-02-20T04:33:22;8.20;99.90
16200;DHT22;8207;52.494;4.654;2023-02-20T04:35:49;8.20;99.90
16200;DHT22;8207;52.494;4.654;2023-02-20T04:38:16;8.30;99.90
16200;DHT22;8207;52.494;4.654;2023-02-20T04:40:42;8.30;99.90
16200;DHT22;8207;52.494;4.654;2023-02-20T04:43:11;8.30;99.90
16200;DHT22;8207;52.494;4.654;2023-02-20T04:45:38;8.30;99.90
16200;DHT22;8207;52.494;4.654;2023-02-20T04:48:04;8.30;99.90
16200;DHT22;8207;52.494;4.654;2023-02-20T04:50:33;8.30;99.90
16200;DHT22;8207;52.494;4.654;2023-02-20T04:53:00;8.30;99.90
16200;DHT22;8207;52.494;4.654;2023-02-20T04:55:27;8.30;99.90
16200;DHT22;8207;52.494;4.654;2023-02-20T04:57:54;8.30;99.90
16200;DHT22;8207;52.494;4.654;2023-02-20T05:00:26;8.30;99.90
16200;DHT22;8207;52.494;4.654;2023-02-20T05:02:54;8.30;99.90
16200;DHT22;8207;52.494;4.654;2023-02-20T05:05:23;8.30;99.90
16200;DHT22;8207;52.494;4.654;2023-02-20T05:07:55;8.30;99.90
16200;DHT22;8207;52.494;4.654;2023-02-20T05:10:23;8.30;99.90
16200;DHT22;8207;52.494;4.654;2023-02-20T05:12:50;8.20;99.90
16200;DHT22;8207;52.494;4.654;2023-02-20T05:15:17;8.20;99.90
16200;DHT22;8207;52.494;4.654;2023-02-20T05:17:46;8.20;99.90
16200;DHT22;8207;52.494;4.654;2023-02-20T05:20:14;8.30;99.90
16200;DHT22;8207;52.494;4.654;2023-02-20T05:22:41;8.30;99.90
16200;DHT22;8207;52.494;4.654;2023-02-20T05:25:07;8.30;99.90
16200;DHT22;8207;52.494;4.654;2023-02-20T05:27:34;8.20;99.90
16200;DHT22;8207;52.494;4.654;2023-02-20T05:30:02;8.20;99.90
16200;DHT22;8207;52.494;4.654;2023-02-20T05:32:30;8.20;99.90
16200;DHT22;8207;52.494;4.654;2023-02-20T05:34:58;8.20;99.90
16200;DHT22;8207;52.494;4.654;2023-02-20T05:37:26;8.20;99.90
16200;DHT22;8207;52.494;4.654;2023-02-20T05:39:53;8.20;99.90
16200;DHT22;8207;52.494;4.654;2023-02-20T05:42:20;8.20;99.90
16200;DHT22;8207;52.494;4.654;2023-02-20T05:44:47;8.20;99.90
16200;DHT22;8207;52.494;4.654;2023-02-20T05:47:15;8.20;99.90
16200;DHT22;8207;52.494;4.654;2023-02-20T05:49:42;8.20;99.90
16200;DHT22;8207;52.494;4.654;2023-02-20T05:52:12;8.30;99.90
16200;DHT22;8207;52.494;4.654;2023-02-20T05:54:39;8.20;99.90
16200;DHT22;8207;52.494;4.654;2023-02-20T05:57:08;8.20;99.90
16200;DHT22;8207;52.494;4.654;2023-02-20T05:59:36;8.20;99.90
16200;DHT22;8207;52.494;4.654;2023-02-20T06:02:03;8.20;99.90
16200;DHT22;8207;52.494;4.654;2023-02-20T06:04:30;8.20;99.90
16200;DHT22;8207;52.494;4.654;2023-02-20T06:06:57;8.20;99.90
16200;DHT22;8207;52.494;4.654;2023-02-20T06:09:25;8.20;99.90
16200;DHT22;8207;52.494;4.654;2023-02-20T06:11:54;8.20;99.90
16200;DHT22;8207;52.494;4.654;2023-02-20T06:14:24;8.20;99.90
16200;DHT22;8207;52.494;4.654;2023-02-20T06:16:51;8.20;99.90
16200;DHT22;8207;52.494;4.654;2023-02-20T06:19:19;8.20;99.90
16200;DHT22;8207;52.494;4.654;2023-02-20T06:21:47;8.20;99.90
16200;DHT22;8207;52.494;4.654;2023-02-20T06:24:14;8.20;99.90
16200;DHT22;8207;52.494;4.654;2023-02-20T06:26:42;8.20;99.90
16200;DHT22;8207;52.494;4.654;2023-02-20T06:29:10;8.20;99.90
16200;DHT22;8207;52.494;4.654;2023-02-20T06:31:37;8.20;99.90
16200;DHT22;8207;52.494;4.654;2023-02-20T06:34:04;8.20;99.90
16200;DHT22;8207;52.494;4.654;2023-02-20T06:36:34;8.20;99.90
16200;DHT22;8207;52.494;4.654;2023-02-20T06:39:01;8.20;99.90
16200;DHT22;8207;52.494;4.654;2023-02-20T06:41:28;8.20;99.90
16200;DHT22;8207;52.494;4.654;2023-02-20T06:43:57;8.20;99.90
16200;DHT22;8207;52.494;4.654;2023-02-20T06:46:24;8.20;99.90
16200;DHT22;8207;52.494;4.654;2023-02-20T06:48:53;8.20;99.90
16200;DHT22;8207;52.494;4.654;2023-02-20T06:51:22;8.30;99.90
16200;DHT22;8207;52.494;4.654;2023-02-20T06:53:50;8.30;99.90
16200;DHT22;8207;52.494;4.654;2023-02-20T06:56:18;8.20;99.90
16200;DHT22;8207;52.494;4.654;2023-02-20T06:58:46;8.20;99.90
16200;DHT22;8207;52.494;4.654;2023-02-20T07:01:15;8.30;99.90
16200;DHT22;8207;52.494;4.654;2023-02-20T07:03:43;8.30;99.90
16200;DHT22;8207;52.494;4.654;2023-02-20T07:06:10;8.30;99.90
16200;DHT22;8207;52.494;4.654;2023-02-20T07:08:37;8.40;99.90
16200;DHT22;8207;52.494;4.654;2023-02-20T07:11:04;8.40;99.90
16200;DHT22;8207;52.494;4.654;2023-02-20T07:13:31;8.40;99.90
16200;DHT22;8207;52.494;4.654;2023-02-20T07:15:58;8.40;99.90
16200;DHT22;8207;52.494;4.654;2023-02-20T07:18:26;8.40;99.90
16200;DHT22;8207;52.494;4.654;2023-02-20T07:20:53;8.50;99.90
16200;DHT22;8207;52.494;4.654;2023-02-20T07:23:21;8.50;99.90
16200;DHT22;8207;52.494;4.654;2023-02-20T07:25:48;8.50;99.90
16200;DHT22;8207;52.494;4.654;2023-02-20T07:28:15;8.60;99.90
16200;DHT22;8207;52.494;4.654;2023-02-20T07:30:43;8.50;99.90
16200;DHT22;8207;52.494;4.654;2023-02-20T07:33:11;8.60;99.90
16200;DHT22;8207;52.494;4.654;2023-02-20T07:35:39;8.60;99.90
16200;DHT22;8207;52.494;4.654;2023-02-20T07:38:06;8.70;99.90
16200;DHT22;8207;52.494;4.654;2023-02-20T07:40:33;8.70;99.90
16200;DHT22;8207;52.494;4.654;2023-02-20T07:43:00;8.70;99.90
16200;DHT22;8207;52.494;4.654;2023-02-20T07:45:27;8.70;99.90
16200;DHT22;8207;52.494;4.654;2023-02-20T07:47:54;8.70;99.90
16200;DHT22;8207;52.494;4.654;2023-02-20T07:50:20;8.70;99.90
16200;DHT22;8207;52.494;4.654;2023-02-20T07:52:49;8.80;99.90
16200;DHT22;8207;52.494;4.654;2023-02-20T07:55:16;8.80;99.90
16200;DHT22;8207;52.494;4.654;2023-02-20T07:57:45;8.80;99.90
16200;DHT22;8207;52.494;4.654;2023-02-20T08:00:14;8.80;99.90
16200;DHT22;8207;52.494;4.654;2023-02-20T08:02:41;8.80;99.90
16200;DHT22;8207;52.494;4.654;2023-02-20T08:05:09;8.80;99.90
16200;DHT22;8207;52.494;4.654;2023-02-20T08:07:37;8.80;99.90
16200;DHT22;8207;52.494;4.654;2023-02-20T08:10:05;8.80;99.90
16200;DHT22;8207;52.494;4.654;2023-02-20T08:12:32;8.80;99.90
16200;DHT22;8207;52.494;4.654;2023-02-20T08:14:59;8.80;99.90
16200;DHT22;8207;52.494;4.654;2023-02-20T08:17:26;8.80;99.90
16200;DHT22;8207;52.494;4.654;2023-02-20T08:19:53;8.80;99.90
16200;DHT22;8207;52.494;4.654;2023-02-20T08:22:20;8.80;99.90
16200;DHT22;8207;52.494;4.654;2023-02-20T08:24:47;8.90;99.90
16200;DHT22;8207;52.494;4.654;2023-02-20T08:27:15;8.90;99.90
16200;DHT22;8207;52.494;4.654;2023-02-20T08:29:44;8.90;99.90
16200;DHT22;8207;52.494;4.654;2023-02-20T08:32:11;8.90;99.90
16200;DHT22;8207;52.494;4.654;2023-02-20T08:34:38;9.00;99.90
16200;DHT22;8207;52.494;4.654;2023-02-20T08:37:05;9.00;99.90
16200;DHT22;8207;52.494;4.654;2023-02-20T08:39:34;9.00;99.90
16200;DHT22;8207;52.494;4.654;2023-02-20T08:42:01;9.00;99.90
16200;DHT22;8207;52.494;4.654;2023-02-20T08:44:29;9.00;99.90
16200;DHT22;8207;52.494;4.654;2023-02-20T08:46:56;9.10;99.90
16200;DHT22;8207;52.494;4.654;2023-02-20T08:49:23;9.10;99.90
16200;DHT22;8207;52.494;4.654;2023-02-20T08:51:54;9.10;99.90
16200;DHT22;8207;52.494;4.654;2023-02-20T08:54:23;9.10;99.90
16200;DHT22;8207;52.494;4.654;2023-02-20T08:56:50;9.20;99.90
16200;DHT22;8207;52.494;4.654;2023-02-20T08:59:17;9.10;99.90
16200;DHT22;8207;52.494;4.654;2023-02-20T09:01:45;9.10;99.90
16200;DHT22;8207;52.494;4.654;2023-02-20T09:04:12;9.20;99.90
16200;DHT22;8207;52.494;4.654;2023-02-20T09:06:40;9.20;99.90
16200;DHT22;8207;52.494;4.654;2023-02-20T09:09:07;9.20;99.90
16200;DHT22;8207;52.494;4.654;2023-02-20T09:11:34;9.20;99.90
16200;DHT22;8207;52.494;4.654;2023-02-20T09:14:01;9.20;99.90
16200;DHT22;8207;52.494;4.654;2023-02-20T09:16:28;9.30;99.90
16200;DHT22;8207;52.494;4.654;2023-02-20T09:18:56;9.30;99.90
16200;DHT22;8207;52.494;4.654;2023-02-20T09:21:23;9.30;99.90
16200;DHT22;8207;52.494;4.654;2023-02-20T09:23:52;9.30;99.90
16200;DHT22;8207;52.494;4.654;2023-02-20T09:26:19;9.30;99.90
16200;DHT22;8207;52.494;4.654;2023-02-20T09:28:46;9.30;99.90
16200;DHT22;8207;52.494;4.654;2023-02-20T09:31:13;9.40;99.90
16200;DHT22;8207;52.494;4.654;2023-02-20T09:33:43;9.40;99.90
16200;DHT22;8207;52.494;4.654;2023-02-20T09:36:12;9.40;99.90
16200;DHT22;8207;52.494;4.654;2023-02-20T09:38:39;9.50;99.90
16200;DHT22;8207;52.494;4.654;2023-02-20T09:41:12;9.40;99.90
16200;DHT22;8207;52.494;4.654;2023-02-20T09:43:47;9.50;99.90
16200;DHT22;8207;52.494;4.654;2023-02-20T09:46:20;9.60;99.90
16200;DHT22;8207;52.494;4.654;2023-02-20T09:48:58;9.60;99.90
16200;DHT22;8207;52.494;4.654;2023-02-20T09:51:31;9.60;99.90
16200;DHT22;8207;52.494;4.654;2023-02-20T09:54:03;9.60;99.90
16200;DHT22;8207;52.494;4.654;2023-02-20T09:56:34;9.70;99.90
16200;DHT22;8207;52.494;4.654;2023-02-20T09:59:06;9.70;99.90
16200;DHT22;8207;52.494;4.654;2023-02-20T10:01:38;9.70;99.90
16200;DHT22;8207;52.494;4.654;2023-02-20T10:04:12;9.70;99.90
16200;DHT22;8207;52.494;4.654;2023-02-20T10:06:40;9.80;99.90
16200;DHT22;8207;52.494;4.654;2023-02-20T10:09:11;9.80;99.90
16200;DHT22;8207;52.494;4.654;2023-02-20T10:11:48;9.80;99.90
16200;DHT22;8207;52.494;4.654;2023-02-20T10:14:46;9.80;99.90
16200;DHT22;8207;52.494;4.654;2023-02-20T10:17:22;9.80;99.90
16200;DHT22;8207;52.494;4.654;2023-02-20T10:19:56;9.80;99.90
16200;DHT22;8207;52.494;4.654;2023-02-20T10:22:31;9.80;99.90
16200;DHT22;8207;52.494;4.654;2023-02-20T10:25:07;9.80;99.90
16200;DHT22;8207;52.494;4.654;2023-02-20T10:27:42;9.90;99.90
16200;DHT22;8207;52.494;4.654;2023-02-20T10:30:19;9.90;99.90
16200;DHT22;8207;52.494;4.654;2023-02-20T10:32:52;9.90;99.90
16200;DHT22;8207;52.494;4.654;2023-02-20T10:35:23;10.00;99.90
16200;DHT22;8207;52.494;4.654;2023-02-20T10:37:56;10.00;99.90
16200;DHT22;8207;52.494;4.654;2023-02-20T10:40:26;10.10;99.90
16200;DHT22;8207;52.494;4.654;2023-02-20T10:43:00;10.20;99.90
16200;DHT22;8207;52.494;4.654;2023-02-20T10:45:38;10.20;99.90
16200;DHT22;8207;52.494;4.654;2023-02-20T10:48:09;10.30;99.90
16200;DHT22;8207;52.494;4.654;2023-02-20T10:50:43;10.30;99.90
16200;DHT22;8207;52.494;4.654;2023-02-20T10:53:21;10.40;99.90
16200;DHT22;8207;52.494;4.654;2023-02-20T10:55:57;10.40;99.90
16200;DHT22;8207;52.494;4.654;2023-02-20T10:58:31;10.40;99.90
16200;DHT22;8207;52.494;4.654;2023-02-20T11:01:01;10.40;99.90
16200;DHT22;8207;52.494;4.654;2023-02-20T11:03:33;10.40;99.90
16200;DHT22;8207;52.494;4.654;2023-02-20T11:06:04;10.30;99.90
16200;DHT22;8207;52.494;4.654;2023-02-20T11:08:34;10.30;99.90
16200;DHT22;8207;52.494;4.654;2023-02-20T11:11:18;10.30;99.90
16200;DHT22;8207;52.494;4.654;2023-02-20T11:13:46;10.40;99.90
16200;DHT22;8207;52.494;4.654;2023-02-20T11:16:21;10.40;99.90
16200;DHT22;8207;52.494;4.654;2023-02-20T11:18:55;10.50;99.90
16200;DHT22;8207;52.494;4.654;2023-02-20T11:21:37;10.60;99.90
16200;DHT22;8207;52.494;4.654;2023-02-20T11:24:30;10.50;99.90
16200;DHT22;8207;52.494;4.654;2023-02-20T11:27:05;10.50;99.90
16200;DHT22;8207;52.494;4.654;2023-02-20T11:29:36;10.50;99.90
16200;DHT22;8207;52.494;4.654;2023-02-20T11:32:25;10.50;99.90
16200;DHT22;8207;52.494;4.654;2023-02-20T11:35:05;10.40;99.90
16200;DHT22;8207;52.494;4.654;2023-02-20T11:37:37;10.50;99.90
16200;DHT22;8207;52.494;4.654;2023-02-20T11:40:14;10.50;99.90
16200;DHT22;8207;52.494;4.654;2023-02-20T11:42:41;10.50;99.90
16200;DHT22;8207;52.494;4.654;2023-02-20T11:45:13;10.60;99.90
16200;DHT22;8207;52.494;4.654;2023-02-20T11:47:41;10.60;99.90
16200;DHT22;8207;52.494;4.654;2023-02-20T11:50:11;10.60;99.90
16200;DHT22;8207;52.494;4.654;2023-02-20T11:52:54;10.60;99.90
16200;DHT22;8207;52.494;4.654;2023-02-20T11:55:24;10.70;99.90
16200;DHT22;8207;52.494;4.654;2023-02-20T11:57:51;10.70;99.90
16200;DHT22;8207;52.494;4.654;2023-02-20T12:00:20;10.80;99.90
16200;DHT22;8207;52.494;4.654;2023-02-20T12:02:49;10.90;99.90
16200;DHT22;8207;52.494;4.654;2023-02-20T12:05:18;10.90;99.90
16200;DHT22;8207;52.494;4.654;2023-02-20T12:07:54;11.00;99.90
16200;DHT22;8207;52.494;4.654;2023-02-20T12:10:28;11.10;99.90
16200;DHT22;8207;52.494;4.654;2023-02-20T12:12:56;11.10;99.90
16200;DHT22;8207;52.494;4.654;2023-02-20T12:15:26;11.10;99.90
16200;DHT22;8207;52.494;4.654;2023-02-20T12:18:35;11.20;99.90
16200;DHT22;8207;52.494;4.654;2023-02-20T12:21:12;11.30;99.90
16200;DHT22;8207;52.494;4.654;2023-02-20T12:23:48;11.20;99.90
16200;DHT22;8207;52.494;4.654;2023-02-20T12:26:29;11.10;99.90
16200;DHT22;8207;52.494;4.654;2023-02-20T12:29:06;11.10;99.90
16200;DHT22;8207;52.494;4.654;2023-02-20T12:31:47;11.10;99.90
16200;DHT22;8207;52.494;4.654;2023-02-20T12:34:28;11.10;99.90
16200;DHT22;8207;52.494;4.654;2023-02-20T12:37:03;11.10;99.90
16200;DHT22;8207;52.494;4.654;2023-02-20T12:39:41;11.20;99.90
16200;DHT22;8207;52.494;4.654;2023-02-20T12:42:19;11.30;99.90
16200;DHT22;8207;52.494;4.654;2023-02-20T12:45:01;11.30;99.90
16200;DHT22;8207;52.494;4.654;2023-02-20T12:47:31;11.30;99.90
16200;DHT22;8207;52.494;4.654;2023-02-20T12:53:29;11.30;99.90
16200;DHT22;8207;52.494;4.654;2023-02-20T12:56:10;11.30;99.90
16200;DHT22;8207;52.494;4.654;2023-02-20T12:58:47;11.30;99.90
16200;DHT22;8207;52.494;4.654;2023-02-20T13:01:18;11.20;99.90
16200;DHT22;8207;52.494;4.654;2023-02-20T13:03:51;11.20;99.90
16200;DHT22;8207;52.494;4.654;2023-02-20T13:06:26;11.20;99.90
16200;DHT22;8207;52.494;4.654;2023-02-20T13:09:04;11.20;99.90
16200;DHT22;8207;52.494;4.654;2023-02-20T13:11:36;11.20;99.90
16200;DHT22;8207;52.494;4.654;2023-02-20T13:14:21;11.20;99.90
16200;DHT22;8207;52.494;4.654;2023-02-20T13:16:55;11.20;99.90
16200;DHT22;8207;52.494;4.654;2023-02-20T13:19:28;11.30;99.90
16200;DHT22;8207;52.494;4.654;2023-02-20T13:21:57;11.30;99.90
16200;DHT22;8207;52.494;4.654;2023-02-20T13:24:32;11.30;99.90
16200;DHT22;8207;52.494;4.654;2023-02-20T13:27:00;11.20;99.90
16200;DHT22;8207;52.494;4.654;2023-02-20T13:29:34;11.20;99.90
16200;DHT22;8207;52.494;4.654;2023-02-20T13:32:04;11.30;99.90
16200;DHT22;8207;52.494;4.654;2023-02-20T13:34:46;11.30;99.90
16200;DHT22;8207;52.494;4.654;2023-02-20T13:37:51;11.30;99.90
16200;DHT22;8207;52.494;4.654;2023-02-20T13:40:36;11.30;99.90
16200;DHT22;8207;52.494;4.654;2023-02-20T13:43:24;11.20;99.90
16200;DHT22;8207;52.494;4.654;2023-02-20T13:48:48;11.20;99.90
16200;DHT22;8207;52.494;4.654;2023-02-20T13:51:32;11.20;99.90
16200;DHT22;8207;52.494;4.654;2023-02-20T13:54:24;11.10;99.90
16200;DHT22;8207;52.494;4.654;2023-02-20T13:56:57;11.10;99.90
16200;DHT22;8207;52.494;4.654;2023-02-20T13:59:27;11.10;99.90
16200;DHT22;8207;52.494;4.654;2023-02-20T14:02:13;11.10;99.90
16200;DHT22;8207;52.494;4.654;2023-02-20T14:04:53;11.10;99.90
16200;DHT22;8207;52.494;4.654;2023-02-20T14:07:31;11.00;99.90
16200;DHT22;8207;52.494;4.654;2023-02-20T14:09:59;11.00;99.90
16200;DHT22;8207;52.494;4.654;2023-02-20T14:12:27;10.90;99.90
16200;DHT22;8207;52.494;4.654;2023-02-20T14:14:54;10.90;99.90
16200;DHT22;8207;52.494;4.654;2023-02-20T14:17:22;10.90;99.90
16200;DHT22;8207;52.494;4.654;2023-02-20T14:19:56;10.90;99.90
16200;DHT22;8207;52.494;4.654;2023-02-20T14:22:29;10.90;99.90
16200;DHT22;8207;52.494;4.654;2023-02-20T14:25:17;10.90;99.90
16200;DHT22;8207;52.494;4.654;2023-02-20T14:27:45;10.90;99.90
16200;DHT22;8207;52.494;4.654;2023-02-20T14:30:14;10.90;99.90
16200;DHT22;8207;52.494;4.654;2023-02-20T14:32:42;10.90;99.90
16200;DHT22;8207;52.494;4.654;2023-02-20T14:35:31;10.80;99.90
16200;DHT22;8207;52.494;4.654;2023-02-20T14:38:14;10.80;99.90
16200;DHT22;8207;52.494;4.654;2023-02-20T14:40:45;10.70;99.90
16200;DHT22;8207;52.494;4.654;2023-02-20T14:43:15;10.70;99.90
16200;DHT22;8207;52.494;4.654;2023-02-20T14:45:43;10.70;99.90
16200;DHT22;8207;52.494;4.654;2023-02-20T14:48:21;10.70;99.90
16200;DHT22;8207;52.494;4.654;2023-02-20T14:51:10;10.70;99.90
16200;DHT22;8207;52.494;4.654;2023-02-20T14:53:38;10.60;99.90
16200;DHT22;8207;52.494;4.654;2023-02-20T14:56:13;10.60;99.90
16200;DHT22;8207;52.494;4.654;2023-02-20T14:58:41;10.60;99.90
16200;DHT22;8207;52.494;4.654;2023-02-20T15:01:16;10.70;99.90
16200;DHT22;8207;52.494;4.654;2023-02-20T15:03:57;10.70;99.90
16200;DHT22;8207;52.494;4.654;2023-02-20T15:06:28;10.70;99.90
16200;DHT22;8207;52.494;4.654;2023-02-20T15:08:57;10.70;99.90
16200;DHT22;8207;52.494;4.654;2023-02-20T15:11:25;10.70;99.90
16200;DHT22;8207;52.494;4.654;2023-02-20T15:13:52;10.70;99.90
16200;DHT22;8207;52.494;4.654;2023-02-20T15:16:22;10.60;99.90
16200;DHT22;8207;52.494;4.654;2023-02-20T15:18:50;10.60;99.90
16200;DHT22;8207;52.494;4.654;2023-02-20T15:21:32;10.60;99.90
16200;DHT22;8207;52.494;4.654;2023-02-20T15:24:26;10.50;99.90
16200;DHT22;8207;52.494;4.654;2023-02-20T15:27:09;10.50;99.90
16200;DHT22;8207;52.494;4.654;2023-02-20T15:29:36;10.40;99.90
16200;DHT22;8207;52.494;4.654;2023-02-20T15:32:05;10.40;99.90
16200;DHT22;8207;52.494;4.654;2023-02-20T15:34:34;10.30;99.90
16200;DHT22;8207;52.494;4.654;2023-02-20T15:37:17;10.30;99.90
16200;DHT22;8207;52.494;4.654;2023-02-20T15:39:44;10.20;99.90
16200;DHT22;8207;52.494;4.654;2023-02-20T15:42:15;10.30;99.90
16200;DHT22;8207;52.494;4.654;2023-02-20T15:44:42;10.20;99.90
16200;DHT22;8207;52.494;4.654;2023-02-20T15:47:09;10.20;99.90
16200;DHT22;8207;52.494;4.654;2023-02-20T15:49:36;10.20;99.90
16200;DHT22;8207;52.494;4.654;2023-02-20T15:52:06;10.20;99.90
16200;DHT22;8207;52.494;4.654;2023-02-20T15:54:34;10.10;99.90
16200;DHT22;8207;52.494;4.654;2023-02-20T15:57:01;10.10;99.90
16200;DHT22;8207;52.494;4.654;2023-02-20T15:59:28;10.10;99.90
16200;DHT22;8207;52.494;4.654;2023-02-20T16:01:55;10.00;99.90
16200;DHT22;8207;52.494;4.654;2023-02-20T16:04:23;10.00;99.90
16200;DHT22;8207;52.494;4.654;2023-02-20T16:06:50;10.00;99.90
16200;DHT22;8207;52.494;4.654;2023-02-20T16:09:18;10.00;99.90
16200;DHT22;8207;52.494;4.654;2023-02-20T16:11:46;10.00;99.90
16200;DHT22;8207;52.494;4.654;2023-02-20T16:14:14;10.00;99.90
16200;DHT22;8207;52.494;4.654;2023-02-20T16:16:44;10.00;99.90
16200;DHT22;8207;52.494;4.654;2023-02-20T16:19:13;9.90;99.90
16200;DHT22;8207;52.494;4.654;2023-02-20T16:21:41;9.90;99.90
16200;DHT22;8207;52.494;4.654;2023-02-20T16:24:07;9.90;99.90
16200;DHT22;8207;52.494;4.654;2023-02-20T16:26:37;9.90;99.90
16200;DHT22;8207;52.494;4.654;2023-02-20T16:29:10;9.90;99.90
16200;DHT22;8207;52.494;4.654;2023-02-20T16:32:16;9.90;99.90
16200;DHT22;8207;52.494;4.654;2023-02-20T16:34:44;9.90;99.90
16200;DHT22;8207;52.494;4.654;2023-02-20T16:37:12;9.90;99.90
16200;DHT22;8207;52.494;4.654;2023-02-20T16:39:39;9.90;99.90
16200;DHT22;8207;52.494;4.654;2023-02-20T16:42:23;9.90;99.90